Time;durP1;ratioP1;P1;durP2;ratioP2;P2;SDS_P1;SDS_P2;PMS_P1;PMS_P2;Temp;Humidity;BMP_temperature;BMP_pressure;BME280_temperature;BME280_humidity;BME280_pressure;Samples;Min_cycle;Max_cycle;Signal;HPM_P1;HPM_P2
2022/04/03 00:00:35;;;;;;;2.13;1.70;;;-0.90;99.20;;;;;;4993196;28;20656;-83
2022/04/03 00:03:02;;;;;;;3.67;1.60;;;-0.90;99.50;;;;;;4996429;28;20618;-85
2022/04/03 00:05:28;;;;;;;3.67;1.50;;;-0.90;99.80;;;;;;4996747;28;20178;-84
2022/04/03 00:07:54;;;;;;;8.40;1.60;;;-0.90;99.90;;;;;;4996260;28;20198;-83
2022/04/03 00:10:22;;;;;;;3.07;1.70;;;-0.90;99.90;;;;;;4994993;28;20183;-82
2022/04/03 00:12:47;;;;;;;3.07;1.60;;;-0.90;99.90;;;;;;4996276;28;20187;-84
2022/04/03 00:15:16;;;;;;;2.43;1.40;;;-0.90;99.90;;;;;;4996218;28;20403;-84
2022/04/03 00:17:43;;;;;;;2.40;1.30;;;-1.00;99.90;;;;;;4996285;28;20180;-84
2022/04/03 00:20:10;;;;;;;3.33;2.00;;;-1.10;99.90;;;;;;4996224;28;20309;-83
2022/04/03 00:22:36;;;;;;;4.23;2.10;;;-1.00;99.90;;;;;;4995678;28;20186;-84
2022/04/03 00:25:02;;;;;;;6.57;3.33;;;-1.10;99.90;;;;;;4995991;28;20179;-84
2022/04/03 00:27:28;;;;;;;9.37;4.80;;;-1.10;99.90;;;;;;4996062;28;20205;-84
2022/04/03 00:29:53;;;;;;;8.57;4.57;;;-1.10;99.90;;;;;;4996003;28;20232;-84
2022/04/03 00:32:19;;;;;;;8.37;3.73;;;-1.10;99.90;;;;;;4995914;28;20191;-84
2022/04/03 00:34:46;;;;;;;2.93;1.90;;;-1.10;99.90;;;;;;4996102;28;20211;-83
2022/04/03 00:37:12;;;;;;;3.50;1.33;;;-1.10;99.90;;;;;;4995846;28;20207;-84
2022/04/03 00:39:38;;;;;;;4.30;1.77;;;-1.20;99.90;;;;;;4995660;28;20218;-84
2022/04/03 00:42:06;;;;;;;4.37;1.70;;;-1.20;99.90;;;;;;4994660;28;20189;-84
2022/04/03 00:44:33;;;;;;;6.73;1.93;;;-1.20;99.90;;;;;;4995817;28;20190;-84
2022/04/03 00:46:59;;;;;;;4.30;1.90;;;-1.20;99.90;;;;;;4995816;28;20269;-84
2022/04/03 00:49:27;;;;;;;2.63;1.70;;;-1.20;99.90;;;;;;4995787;28;20187;-83
2022/04/03 00:51:52;;;;;;;3.93;2.00;;;-1.20;99.90;;;;;;4995693;28;20182;-84
2022/04/03 00:54:18;;;;;;;2.93;2.00;;;-1.20;99.90;;;;;;4995446;28;20214;-85
2022/04/03 00:56:44;;;;;;;5.40;1.80;;;-1.20;99.90;;;;;;4995825;28;20603;-83
2022/04/03 00:59:12;;;;;;;4.33;2.00;;;-1.20;99.90;;;;;;4995565;28;20197;-84
2022/04/03 01:01:42;;;;;;;4.63;2.00;;;-1.20;99.90;;;;;;4995578;28;20197;-84
2022/04/03 01:04:08;;;;;;;3.57;1.80;;;-1.30;99.90;;;;;;4993610;28;20245;-84
2022/04/03 01:06:34;;;;;;;4.20;1.97;;;-1.30;99.90;;;;;;4995475;28;20197;-84
2022/04/03 01:08:59;;;;;;;3.73;1.90;;;-1.30;99.90;;;;;;4993842;28;20192;-84
2022/04/03 01:11:25;;;;;;;3.10;1.70;;;-1.30;99.90;;;;;;4994135;28;20236;-85
2022/04/03 01:13:52;;;;;;;3.37;2.00;;;-1.30;99.90;;;;;;4995351;28;20223;-84
2022/04/03 01:16:18;;;;;;;5.80;2.43;;;-1.10;99.90;;;;;;4995445;28;20179;-84
2022/04/03 01:18:45;;;;;;;4.00;1.80;;;-1.20;99.90;;;;;;4994648;28;20188;-83
2022/04/03 01:21:11;;;;;;;2.97;1.67;;;-1.30;99.90;;;;;;4995424;28;20210;-84
2022/04/03 01:23:37;;;;;;;2.70;1.90;;;-1.30;99.90;;;;;;4994894;28;20260;-84
2022/04/03 01:26:03;;;;;;;3.13;1.70;;;-1.30;99.90;;;;;;4995232;28;20183;-85
2022/04/03 01:28:29;;;;;;;3.80;2.40;;;-1.30;99.90;;;;;;4995174;28;20558;-84
2022/04/03 01:30:55;;;;;;;3.70;1.80;;;-1.30;99.90;;;;;;4995210;28;20189;-84
2022/04/03 01:33:21;;;;;;;7.03;2.03;;;-1.40;99.90;;;;;;4994807;28;20491;-83
2022/04/03 01:35:46;;;;;;;2.23;1.50;;;-1.40;99.90;;;;;;4993562;28;20182;-85
2022/04/03 01:38:12;;;;;;;2.57;1.90;;;-1.50;99.90;;;;;;4995115;28;20178;-84
2022/04/03 01:40:38;;;;;;;5.87;1.90;;;-1.50;99.90;;;;;;4993806;28;20188;-84
2022/04/03 01:43:05;;;;;;;3.67;2.23;;;-1.50;99.90;;;;;;4995100;28;20183;-83
2022/04/03 01:45:31;;;;;;;2.93;1.73;;;-1.60;99.90;;;;;;4995034;28;20626;-81
2022/04/03 01:47:57;;;;;;;4.60;2.20;;;-1.60;99.90;;;;;;4994768;28;20181;-80
2022/04/03 01:50:22;;;;;;;4.53;1.90;;;-1.60;99.90;;;;;;4994723;28;20180;-85
2022/04/03 01:52:48;;;;;;;4.00;1.87;;;-1.70;99.90;;;;;;4994804;28;20622;-84
2022/04/03 01:55:13;;;;;;;2.27;1.93;;;-1.60;99.90;;;;;;4994726;28;20553;-84
2022/04/03 01:57:39;;;;;;;4.10;1.90;;;-1.60;99.90;;;;;;4994941;28;20615;-84
2022/04/03 02:00:09;;;;;;;2.57;1.87;;;-1.70;99.90;;;;;;4994800;28;20675;-83
2022/04/03 02:02:38;;;;;;;2.80;1.80;;;-1.60;99.90;;;;;;4994691;28;20176;-83
2022/04/03 02:05:06;;;;;;;8.03;2.00;;;-1.60;99.90;;;;;;4994900;28;20172;-84
2022/04/03 02:07:33;;;;;;;3.93;1.90;;;-1.70;99.90;;;;;;4994592;28;20685;-84
2022/04/03 02:09:59;;;;;;;3.10;1.70;;;-1.90;99.90;;;;;;4994902;28;20263;-84
2022/04/03 02:12:25;;;;;;;2.87;1.80;;;-2.00;99.90;;;;;;4994693;28;20180;-84
2022/04/03 02:14:51;;;;;;;4.27;1.80;;;-2.00;99.90;;;;;;4994638;28;20620;-83
2022/04/03 02:17:17;;;;;;;2.10;1.50;;;-2.00;99.90;;;;;;4996935;28;20185;-83
2022/04/03 02:19:43;;;;;;;2.57;1.80;;;-2.00;99.90;;;;;;4997893;28;20232;-84
2022/04/03 02:22:09;;;;;;;2.80;1.63;;;-1.90;99.90;;;;;;4998605;28;20310;-83
2022/04/03 02:24:34;;;;;;;4.67;2.00;;;-2.00;99.90;;;;;;4998402;28;20179;-84
2022/04/03 02:27:00;;;;;;;4.17;1.80;;;-2.00;99.90;;;;;;4998405;28;20265;-83
2022/04/03 02:29:26;;;;;;;3.03;1.80;;;-2.00;99.90;;;;;;4998192;28;20641;-83
2022/04/03 02:31:51;;;;;;;2.83;1.60;;;-2.10;99.90;;;;;;4998173;28;20181;-84
2022/04/03 02:34:17;;;;;;;3.17;1.73;;;-2.00;99.90;;;;;;4998198;28;20203;-83
2022/04/03 02:36:43;;;;;;;4.43;2.00;;;-2.00;99.90;;;;;;4998470;28;20180;-82
2022/04/03 02:39:09;;;;;;;2.83;1.73;;;-2.10;99.90;;;;;;4996649;28;20611;-84
2022/04/03 02:41:35;;;;;;;2.80;1.73;;;-2.10;99.90;;;;;;4998009;28;20187;-83
2022/04/03 02:44:03;;;;;;;2.83;1.80;;;-2.10;99.90;;;;;;4997963;28;20224;-84
2022/04/03 02:46:29;;;;;;;6.20;2.27;;;-2.10;99.90;;;;;;4996875;28;20184;-83
2022/04/03 02:48:55;;;;;;;2.67;2.00;;;-2.20;99.90;;;;;;4998156;28;20175;-85
2022/04/03 02:51:21;;;;;;;2.30;1.80;;;-2.20;99.90;;;;;;4997822;28;20180;-84
2022/04/03 02:53:46;;;;;;;3.60;1.90;;;-2.30;99.90;;;;;;5438132;22;20244;-78
2022/04/03 02:56:12;;;;;;;3.80;1.93;;;-2.30;99.90;;;;;;4977561;28;20191;-77
2022/04/03 02:58:38;;;;;;;2.73;2.00;;;-2.30;99.90;;;;;;4977355;28;20533;-78
2022/04/03 03:01:04;;;;;;;2.80;1.27;;;-2.30;99.90;;;;;;4997877;28;20180;-77
2022/04/03 03:03:29;;;;;;;2.77;2.00;;;-2.40;99.90;;;;;;4997677;28;20224;-77
2022/04/03 03:05:55;;;;;;;3.27;1.73;;;-2.40;99.90;;;;;;4997729;28;20179;-77
2022/04/03 03:08:24;;;;;;;3.30;2.07;;;-2.40;99.90;;;;;;4996470;28;20177;-77
2022/04/03 03:10:49;;;;;;;2.20;1.93;;;-2.40;99.90;;;;;;4997375;28;20494;-77
2022/04/03 03:13:15;;;;;;;3.67;1.80;;;-2.40;99.90;;;;;;4997250;28;20267;-77
2022/04/03 03:15:41;;;;;;;3.37;1.80;;;-2.40;99.90;;;;;;4997473;28;20183;-77
2022/04/03 03:18:07;;;;;;;2.97;1.30;;;-2.40;99.90;;;;;;4997611;28;20535;-77
2022/04/03 03:20:33;;;;;;;8.57;2.17;;;-2.50;99.90;;;;;;4997561;28;20180;-77
2022/04/03 03:23:00;;;;;;;3.90;1.93;;;-2.40;99.90;;;;;;4996884;28;20186;-77
2022/04/03 03:25:26;;;;;;;3.37;1.60;;;-2.50;99.90;;;;;;4997114;28;20171;-78
2022/04/03 03:27:52;;;;;;;3.70;1.90;;;-2.50;99.90;;;;;;4995314;28;20233;-78
2022/04/03 03:30:17;;;;;;;7.73;1.73;;;-2.50;99.90;;;;;;4997153;28;20176;-77
2022/04/03 03:32:43;;;;;;;2.20;1.73;;;-2.40;99.90;;;;;;4995771;28;20225;-78
2022/04/03 03:35:10;;;;;;;3.47;1.87;;;-2.50;99.90;;;;;;4997147;28;20226;-77
2022/04/03 03:37:37;;;;;;;3.63;1.60;;;-2.40;99.90;;;;;;4995811;28;20179;-77
2022/04/03 03:40:06;;;;;;;2.37;1.70;;;-2.50;99.90;;;;;;4996739;28;20187;-77
2022/04/03 03:42:33;;;;;;;4.27;2.10;;;-2.50;99.90;;;;;;4995685;28;20171;-77
2022/04/03 03:44:59;;;;;;;2.50;1.90;;;-2.50;99.90;;;;;;4996959;28;20172;-77
2022/04/03 03:47:26;;;;;;;4.13;1.87;;;-2.50;99.90;;;;;;4996903;28;20245;-77
2022/04/03 03:49:52;;;;;;;2.93;1.70;;;-2.60;99.90;;;;;;4995608;28;20611;-77
2022/04/03 03:52:18;;;;;;;2.87;1.90;;;-2.50;99.90;;;;;;4996954;28;20250;-77
2022/04/03 03:54:45;;;;;;;2.63;1.73;;;-2.50;99.90;;;;;;4995058;28;20570;-78
2022/04/03 03:57:12;;;;;;;2.70;1.77;;;-2.40;99.90;;;;;;4996759;28;20171;-78
2022/04/03 03:59:37;;;;;;;3.30;1.80;;;-2.40;99.90;;;;;;4995242;28;20631;-77
2022/04/03 04:02:03;;;;;;;2.07;1.60;;;-2.30;99.90;;;;;;4995315;28;20267;-78
2022/04/03 04:04:29;;;;;;;2.90;1.73;;;-2.20;99.90;;;;;;4995420;28;20238;-77
2022/04/03 04:06:56;;;;;;;3.00;1.90;;;-2.30;99.90;;;;;;4996570;28;20226;-78
2022/04/03 04:09:22;;;;;;;3.00;1.97;;;-2.30;99.90;;;;;;4996396;28;20666;-78
2022/04/03 04:11:47;;;;;;;2.93;1.57;;;-2.20;99.90;;;;;;4994976;28;20180;-77
2022/04/03 04:14:14;;;;;;;2.33;1.70;;;-2.20;99.90;;;;;;4996196;28;20216;-78
2022/04/03 04:16:42;;;;;;;2.60;1.73;;;-2.20;99.90;;;;;;4996542;28;20176;-78
2022/04/03 04:19:08;;;;;;;2.53;1.73;;;-2.20;99.90;;;;;;4996376;28;20223;-78
2022/04/03 04:21:34;;;;;;;4.50;2.10;;;-2.30;99.90;;;;;;4996233;28;20172;-78
2022/04/03 04:24:00;;;;;;;2.50;1.63;;;-2.20;99.90;;;;;;4995151;28;20184;-77
2022/04/03 04:26:25;;;;;;;3.83;2.17;;;-2.20;99.90;;;;;;4994576;28;20219;-77
2022/04/03 04:28:51;;;;;;;2.30;1.77;;;-2.10;99.90;;;;;;4995952;28;20166;-78
2022/04/03 04:31:18;;;;;;;3.73;2.07;;;-2.10;99.90;;;;;;4987366;28;20261;-77
2022/04/03 04:33:44;;;;;;;2.70;1.70;;;-2.00;99.90;;;;;;4994708;28;20639;-77
2022/04/03 04:36:10;;;;;;;4.13;2.17;;;-2.00;99.90;;;;;;4993977;28;20193;-77
2022/04/03 04:38:36;;;;;;;4.33;2.03;;;-2.00;99.90;;;;;;4993336;28;20183;-77
2022/04/03 04:41:02;;;;;;;2.90;1.80;;;-2.00;99.90;;;;;;4993505;28;20611;-77
2022/04/03 04:43:28;;;;;;;3.10;1.90;;;-2.00;99.90;;;;;;4993233;28;20197;-77
2022/04/03 04:45:54;;;;;;;2.83;1.80;;;-2.00;99.90;;;;;;4994072;28;20633;-77
2022/04/03 04:48:19;;;;;;;4.13;2.10;;;-2.00;99.90;;;;;;4994480;28;20175;-77
2022/04/03 04:50:45;;;;;;;5.57;1.83;;;-2.00;99.90;;;;;;4993616;28;20239;-77
2022/04/03 04:53:10;;;;;;;3.20;1.93;;;-2.00;99.90;;;;;;4993798;28;20551;-77
2022/04/03 04:55:36;;;;;;;3.30;2.10;;;-1.90;99.90;;;;;;4993396;28;20221;-77
2022/04/03 04:58:02;;;;;;;3.07;2.40;;;-1.90;99.90;;;;;;4992741;28;20180;-77
2022/04/03 05:00:30;;;;;;;2.30;1.80;;;-1.90;99.90;;;;;;4991963;28;21682;-78
2022/04/03 05:02:57;;;;;;;3.47;2.07;;;-1.90;99.90;;;;;;4993904;28;20204;-78
2022/04/03 05:05:23;;;;;;;4.93;2.50;;;-1.90;99.90;;;;;;4993567;28;20242;-78
2022/04/03 05:07:55;;;;;;;3.10;2.10;;;-1.90;99.90;;;;;;4992856;28;20191;-78
2022/04/03 05:10:23;;;;;;;4.93;2.13;;;-1.90;99.90;;;;;;4991215;28;20175;-78
2022/04/03 05:12:49;;;;;;;2.80;2.10;;;-1.80;99.90;;;;;;4992619;28;20278;-78
2022/04/03 05:15:17;;;;;;;7.03;2.00;;;-1.80;99.90;;;;;;4991906;28;20771;-78
2022/04/03 05:17:44;;;;;;;3.13;2.10;;;-1.80;99.90;;;;;;4992610;28;20190;-78
2022/04/03 05:20:12;;;;;;;4.80;2.13;;;-1.80;99.90;;;;;;4991127;28;20243;-78
2022/04/03 05:22:42;;;;;;;3.83;2.20;;;-1.80;99.90;;;;;;4993376;28;20538;-77
2022/04/03 05:25:11;;;;;;;6.97;2.13;;;-1.80;99.90;;;;;;4991662;28;20193;-78
2022/04/03 05:27:38;;;;;;;3.30;2.33;;;-1.70;99.90;;;;;;4992839;28;20183;-78
2022/04/03 05:30:04;;;;;;;5.43;2.30;;;-1.70;99.90;;;;;;4992335;28;20188;-78
2022/04/03 05:32:32;;;;;;;4.37;2.10;;;-1.60;99.90;;;;;;4991611;28;20184;-78
2022/04/03 05:34:59;;;;;;;4.50;2.50;;;-1.60;99.90;;;;;;4993066;28;20239;-78
2022/04/03 05:37:25;;;;;;;3.23;2.20;;;-1.60;99.90;;;;;;4993675;28;20261;-78
2022/04/03 05:39:52;;;;;;;4.07;2.40;;;-1.50;99.90;;;;;;4988659;28;20176;-78
2022/04/03 05:42:18;;;;;;;3.80;2.60;;;-1.50;99.90;;;;;;4992738;28;20276;-78
2022/04/03 05:44:44;;;;;;;3.60;2.53;;;-1.40;99.90;;;;;;4993428;28;20799;-79
2022/04/03 05:47:10;;;;;;;3.97;2.50;;;-1.40;99.90;;;;;;4992589;28;20186;-78
2022/04/03 05:49:37;;;;;;;2.90;2.20;;;-1.30;99.90;;;;;;4992215;28;20207;-78
2022/04/03 05:52:04;;;;;;;2.53;2.00;;;-1.30;99.90;;;;;;4994220;28;20201;-78
2022/04/03 05:54:29;;;;;;;6.20;2.30;;;-1.20;99.90;;;;;;4995909;28;20239;-79
2022/04/03 05:56:55;;;;;;;3.17;2.40;;;-1.20;99.90;;;;;;5005813;28;20522;-79
2022/04/03 05:59:21;;;;;;;4.53;2.10;;;-1.20;99.90;;;;;;4997873;28;20178;-79
2022/04/03 06:01:47;;;;;;;3.20;2.10;;;-1.10;99.90;;;;;;4995828;28;20231;-79
2022/04/03 06:04:14;;;;;;;5.23;2.33;;;-1.20;99.90;;;;;;4995640;28;20215;-79
2022/04/03 06:06:40;;;;;;;4.17;2.33;;;-1.20;99.90;;;;;;4996855;28;20281;-79
2022/04/03 06:09:06;;;;;;;4.73;2.53;;;-1.30;99.90;;;;;;4996060;28;20581;-79
2022/04/03 06:11:32;;;;;;;2.73;1.90;;;-1.20;99.90;;;;;;4995537;28;20298;-78
2022/04/03 06:13:57;;;;;;;2.53;1.77;;;-1.20;99.90;;;;;;4996729;28;20215;-79
2022/04/03 06:16:23;;;;;;;4.57;2.80;;;-1.20;99.90;;;;;;4995741;28;20207;-79
2022/04/03 06:18:48;;;;;;;3.90;2.40;;;-1.10;99.90;;;;;;4996985;28;20189;-78
2022/04/03 06:21:14;;;;;;;5.17;2.50;;;-1.00;99.90;;;;;;4995460;28;20189;-79
2022/04/03 06:23:40;;;;;;;3.77;2.67;;;-0.90;99.90;;;;;;4995068;28;20183;-79
2022/04/03 06:26:06;;;;;;;4.67;2.73;;;-0.80;99.90;;;;;;4995964;28;20185;-79
2022/04/03 06:28:31;;;;;;;4.17;2.40;;;-0.70;99.90;;;;;;4996827;28;20197;-80
2022/04/03 06:30:57;;;;;;;4.97;2.90;;;-0.50;99.90;;;;;;4996573;28;20184;-79
2022/04/03 06:33:24;;;;;;;5.73;2.40;;;-0.40;99.90;;;;;;4994721;28;20185;-79
2022/04/03 06:35:49;;;;;;;4.40;2.70;;;-0.30;99.90;;;;;;4994306;28;20338;-79
2022/04/03 06:38:17;;;;;;;3.53;2.40;;;-0.10;99.90;;;;;;4995423;28;20274;-79
2022/04/03 06:40:54;;;;;;;6.43;2.47;;;-0.10;99.90;;;;;;4995053;28;20635;-79
2022/04/03 06:43:22;;;;;;;5.80;2.60;;;0.10;99.90;;;;;;4995486;28;20186;-80
2022/04/03 06:45:48;;;;;;;5.00;2.50;;;0.20;99.90;;;;;;4995496;28;20207;-79
2022/04/03 06:48:15;;;;;;;3.97;2.60;;;0.20;99.90;;;;;;4996496;28;20231;-79
2022/04/03 06:50:41;;;;;;;2.97;2.40;;;0.20;99.90;;;;;;4996884;28;20182;-80
2022/04/03 06:53:07;;;;;;;5.13;2.77;;;0.10;99.90;;;;;;4993172;28;20227;-79
2022/04/03 06:55:33;;;;;;;4.97;3.00;;;0.20;99.90;;;;;;4995064;28;20515;-79
2022/04/03 06:57:59;;;;;;;5.07;2.73;;;0.30;99.90;;;;;;4996370;28;20193;-79
2022/04/03 07:00:26;;;;;;;5.83;2.70;;;0.30;99.90;;;;;;4995074;28;20187;-79
2022/04/03 07:02:51;;;;;;;5.17;2.53;;;0.50;99.90;;;;;;4993784;28;20626;-80
2022/04/03 07:05:17;;;;;;;4.77;2.67;;;0.50;99.90;;;;;;4993996;28;20553;-80
2022/04/03 07:07:44;;;;;;;4.17;3.00;;;0.60;99.90;;;;;;4996163;28;20197;-80
2022/04/03 07:10:10;;;;;;;3.17;2.77;;;0.70;99.90;;;;;;4994700;28;20198;-80
2022/04/03 07:12:37;;;;;;;8.63;3.10;;;0.90;99.90;;;;;;4995960;28;20211;-80
2022/04/03 07:15:05;;;;;;;4.17;2.83;;;1.00;99.90;;;;;;4995749;28;20215;-81
2022/04/03 07:17:31;;;;;;;5.60;3.03;;;1.00;99.90;;;;;;4994876;28;20192;-81
2022/04/03 07:19:56;;;;;;;6.33;3.43;;;1.10;99.90;;;;;;4995750;28;20180;-81
2022/04/03 07:22:22;;;;;;;4.87;3.00;;;1.20;99.90;;;;;;4993811;28;20186;-81
2022/04/03 07:24:48;;;;;;;5.07;2.93;;;1.20;99.90;;;;;;4996766;28;20195;-81
2022/04/03 07:27:14;;;;;;;7.40;2.87;;;1.30;99.90;;;;;;4993704;28;20638;-81
2022/04/03 07:29:39;;;;;;;4.13;2.93;;;1.40;99.90;;;;;;4992242;28;20190;-82
2022/04/03 07:32:05;;;;;;;6.23;2.90;;;1.50;99.90;;;;;;4992012;28;20211;-80
2022/04/03 07:34:31;;;;;;;4.10;2.43;;;1.60;99.90;;;;;;4992751;28;20299;-81
2022/04/03 07:36:57;;;;;;;4.27;2.97;;;1.80;99.90;;;;;;4994455;28;20303;-81
2022/04/03 07:39:24;;;;;;;3.53;2.50;;;1.90;99.90;;;;;;4994244;28;20182;-81
2022/04/03 07:41:50;;;;;;;3.50;2.73;;;2.00;99.90;;;;;;4994160;28;20179;-80
2022/04/03 07:44:16;;;;;;;5.13;2.70;;;2.20;99.90;;;;;;4993075;28;20272;-81
2022/04/03 07:46:42;;;;;;;5.70;2.70;;;2.30;99.90;;;;;;4992407;28;20555;-81
2022/04/03 07:49:08;;;;;;;4.30;2.90;;;2.50;99.90;;;;;;4993346;28;20180;-81
2022/04/03 07:51:34;;;;;;;4.33;3.00;;;2.50;99.90;;;;;;4995291;28;20187;-81
2022/04/03 07:54:03;;;;;;;3.70;2.40;;;2.70;99.90;;;;;;4992350;28;20243;-80
2022/04/03 07:56:30;;;;;;;4.17;2.97;;;2.80;99.90;;;;;;4995324;28;20663;-81
2022/04/03 07:58:56;;;;;;;4.27;3.30;;;3.00;99.90;;;;;;4993420;28;20183;-81
2022/04/03 08:01:22;;;;;;;6.03;3.20;;;3.10;99.90;;;;;;4994792;28;20187;-81
2022/04/03 08:03:48;;;;;;;4.07;2.87;;;3.30;99.90;;;;;;4993532;28;20172;-81
2022/04/03 08:06:13;;;;;;;3.90;2.87;;;3.40;99.90;;;;;;4993509;28;20616;-81
2022/04/03 08:08:41;;;;;;;4.87;3.00;;;3.50;99.90;;;;;;4994402;28;20177;-81
2022/04/03 08:11:07;;;;;;;2.90;2.30;;;3.60;99.90;;;;;;4992602;28;20556;-81
2022/04/03 08:13:33;;;;;;;4.60;2.57;;;3.70;99.90;;;;;;4994470;28;20176;-80
2022/04/03 08:16:01;;;;;;;5.50;2.90;;;3.90;99.90;;;;;;4992179;28;20305;-80
2022/04/03 08:18:27;;;;;;;3.87;2.37;;;4.00;99.90;;;;;;4994040;28;20674;-80
2022/04/03 08:20:53;;;;;;;5.23;2.20;;;4.10;99.90;;;;;;4989939;28;20192;-79
2022/04/03 08:23:19;;;;;;;4.50;2.13;;;4.10;99.90;;;;;;4991292;28;20180;-80
2022/04/03 08:25:48;;;;;;;4.10;2.30;;;4.10;99.90;;;;;;4992481;28;20180;-80
2022/04/03 08:28:16;;;;;;;4.80;2.30;;;4.20;99.90;;;;;;4993381;28;20203;-80
2022/04/03 08:30:42;;;;;;;5.33;2.07;;;4.30;99.90;;;;;;4992519;28;20179;-79
2022/04/03 08:33:09;;;;;;;5.00;2.37;;;4.40;99.90;;;;;;4993657;28;20184;-79
2022/04/03 08:35:40;;;;;;;3.70;2.17;;;4.50;99.90;;;;;;4991707;28;20203;-80
2022/04/03 08:38:07;;;;;;;2.80;2.00;;;4.80;99.90;;;;;;4990528;28;20267;-79
2022/04/03 08:40:33;;;;;;;4.77;2.07;;;4.90;99.90;;;;;;4992218;28;20201;-80
2022/04/03 08:43:00;;;;;;;3.17;2.13;;;4.90;99.90;;;;;;4992570;28;20194;-79
2022/04/03 08:45:27;;;;;;;2.63;2.03;;;4.80;99.90;;;;;;4992048;28;20231;-79
2022/04/03 08:47:55;;;;;;;5.87;2.03;;;4.80;99.90;;;;;;4993027;28;20262;-80
2022/04/03 08:50:27;;;;;;;4.70;2.50;;;4.80;99.90;;;;;;4992201;28;20306;-80
2022/04/03 08:52:56;;;;;;;5.87;2.13;;;4.80;99.90;;;;;;4993827;28;20267;-80
2022/04/03 08:55:22;;;;;;;4.47;2.30;;;4.80;99.90;;;;;;4988463;28;20229;-79
2022/04/03 08:57:48;;;;;;;2.83;2.10;;;5.00;99.90;;;;;;4993797;28;20179;-80
2022/04/03 09:00:15;;;;;;;3.77;2.13;;;5.20;99.90;;;;;;4993228;28;20690;-81
2022/04/03 09:02:44;;;;;;;3.70;2.03;;;5.30;99.90;;;;;;4992353;28;20678;-79
2022/04/03 09:05:09;;;;;;;3.37;1.80;;;5.30;99.90;;;;;;4991888;28;20243;-80
2022/04/03 09:07:35;;;;;;;5.27;2.33;;;5.30;99.90;;;;;;4992241;28;20572;-80
2022/04/03 09:10:09;;;;;;;3.13;1.80;;;5.30;99.90;;;;;;4989981;28;20188;-79
2022/04/03 09:12:50;;;;;;;2.93;1.50;;;5.30;99.90;;;;;;4990879;28;20187;-80
2022/04/03 09:15:18;;;;;;;4.40;1.50;;;5.20;99.90;;;;;;4992237;28;20203;-80
2022/04/03 09:17:46;;;;;;;2.63;1.20;;;5.30;99.90;;;;;;4990361;28;20687;-80
2022/04/03 09:20:13;;;;;;;4.03;1.93;;;5.40;99.70;;;;;;4991050;28;20637;-80
2022/04/03 09:22:41;;;;;;;6.67;1.90;;;5.30;99.90;;;;;;4992874;28;20179;-79
2022/04/03 09:25:09;;;;;;;3.30;1.67;;;5.30;99.90;;;;;;4989014;28;20176;-79
2022/04/03 09:27:49;;;;;;;3.40;1.87;;;5.20;99.90;;;;;;4992099;28;20175;-80
2022/04/03 09:30:15;;;;;;;4.30;2.00;;;5.30;99.90;;;;;;4991866;28;20246;-79
2022/04/03 09:32:51;;;;;;;4.63;2.00;;;5.50;99.90;;;;;;4991187;28;20599;-80
2022/04/03 09:35:19;;;;;;;3.80;1.73;;;5.60;99.90;;;;;;4993091;28;20207;-80
2022/04/03 09:38:11;;;;;;;3.50;1.40;;;5.80;99.90;;;;;;4991995;28;20172;-78
2022/04/03 09:40:40;;;;;;;2.17;1.50;;;5.80;99.40;;;;;;4993599;28;20611;-79
2022/04/03 09:43:32;;;;;;;4.23;2.00;;;5.90;99.70;;;;;;4992815;28;20205;-79
2022/04/03 09:46:01;;;;;;;2.23;1.30;;;6.00;99.70;;;;;;4989906;28;20180;-79
2022/04/03 09:48:40;;;;;;;1.60;1.40;;;6.20;98.80;;;;;;4992727;28;20271;-79
2022/04/03 09:51:13;;;;;;;4.80;1.70;;;6.10;97.70;;;;;;4986707;28;20175;-79
2022/04/03 09:53:43;;;;;;;2.20;1.37;;;6.10;99.30;;;;;;4990417;28;20393;-78
2022/04/03 09:56:10;;;;;;;1.70;1.10;;;6.00;98.50;;;;;;4992559;28;20645;-79
2022/04/03 09:59:03;;;;;;;3.93;1.50;;;6.00;99.30;;;;;;4992535;28;20505;-79
2022/04/03 10:01:30;;;;;;;2.07;1.30;;;6.10;98.90;;;;;;4996782;28;20191;-79
2022/04/03 10:03:59;;;;;;;3.30;1.63;;;6.20;98.40;;;;;;4990099;28;20176;-79
2022/04/03 10:06:25;;;;;;;4.33;1.40;;;6.20;97.80;;;;;;4991613;28;20527;-79
2022/04/03 10:08:52;;;;;;;1.50;1.17;;;6.20;98.00;;;;;;4991794;28;20183;-79
2022/04/03 10:11:18;;;;;;;2.60;1.10;;;6.30;96.00;;;;;;4990633;28;20179;-79
2022/04/03 10:13:45;;;;;;;2.87;1.47;;;6.10;97.90;;;;;;4992252;28;20211;-79
2022/04/03 10:16:12;;;;;;;3.40;1.90;;;6.00;97.70;;;;;;4990490;28;20248;-79
2022/04/03 10:18:40;;;;;;;3.50;1.60;;;5.90;99.00;;;;;;4991623;28;20507;-78
2022/04/03 10:21:29;;;;;;;4.03;1.83;;;5.80;99.70;;;;;;4993448;28;20180;-79
2022/04/03 10:24:02;;;;;;;3.17;1.53;;;5.60;99.90;;;;;;4991278;28;20196;-79
2022/04/03 10:26:32;;;;;;;2.93;1.43;;;5.50;99.90;;;;;;4990196;28;20180;-79
2022/04/03 10:28:59;;;;;;;3.10;2.07;;;5.20;99.90;;;;;;4990772;28;20222;-79
2022/04/03 10:31:26;;;;;;;2.20;1.30;;;5.30;99.90;;;;;;4990947;28;20265;-79
2022/04/03 10:33:52;;;;;;;2.57;1.43;;;5.40;99.90;;;;;;4992236;28;20195;-79
2022/04/03 10:36:33;;;;;;;2.53;1.17;;;5.40;99.90;;;;;;4990092;28;20180;-79
2022/04/03 10:39:04;;;;;;;2.37;1.50;;;5.50;99.90;;;;;;4993627;28;20591;-79
2022/04/03 10:41:36;;;;;;;1.97;1.10;;;5.40;99.90;;;;;;4993384;28;20184;-79
2022/04/03 10:44:18;;;;;;;1.50;1.00;;;5.50;99.90;;;;;;4995206;28;20267;-78
2022/04/03 10:47:04;;;;;;;3.53;1.50;;;5.40;99.90;;;;;;4990750;28;20180;-79
2022/04/03 10:50:02;;;;;;;1.33;1.17;;;5.30;99.90;;;;;;4994474;28;20491;-80
2022/04/03 10:52:37;;;;;;;1.97;1.30;;;5.30;99.90;;;;;;4992618;28;20637;-79
2022/04/03 10:55:19;;;;;;;5.00;1.10;;;5.20;99.90;;;;;;4994376;28;20344;-80
2022/04/03 10:57:50;;;;;;;18.23;2.40;;;5.30;99.90;;;;;;4995816;28;20230;-79
2022/04/03 11:00:16;;;;;;;4.30;1.40;;;5.40;99.90;;;;;;4991585;28;20218;-79
2022/04/03 11:02:44;;;;;;;5.17;1.47;;;5.50;99.90;;;;;;4995126;28;20203;-80
2022/04/03 11:05:22;;;;;;;4.00;1.20;;;5.70;99.90;;;;;;4991774;28;20191;-79
2022/04/03 11:08:02;;;;;;;5.00;1.50;;;5.80;99.90;;;;;;5001058;28;20247;-79
2022/04/03 11:10:46;;;;;;;3.13;1.10;;;5.90;99.90;;;;;;4995006;28;20168;-79
2022/04/03 11:13:13;;;;;;;3.73;1.47;;;6.10;99.90;;;;;;5002357;28;20178;-79
2022/04/03 11:15:44;;;;;;;5.47;1.40;;;6.10;99.90;;;;;;4993259;28;20223;-79
2022/04/03 11:18:30;;;;;;;3.63;1.33;;;6.00;99.90;;;;;;4988519;28;20187;-80
2022/04/03 11:21:21;;;;;;;4.63;1.50;;;5.90;99.90;;;;;;4993783;28;20255;-79
2022/04/03 11:24:06;;;;;;;2.33;1.20;;;6.10;99.90;;;;;;4995310;28;20619;-80
2022/04/03 11:26:33;;;;;;;3.60;1.47;;;6.60;99.90;;;;;;4992690;28;20526;-79
2022/04/03 11:29:00;;;;;;;4.47;1.63;;;6.90;99.90;;;;;;4993743;28;20246;-80
2022/04/03 11:31:26;;;;;;;3.70;1.30;;;6.90;99.70;;;;;;4995418;28;20176;-79
2022/04/03 11:33:52;;;;;;;3.73;1.17;;;7.10;99.60;;;;;;4996491;28;20647;-79
2022/04/03 11:36:23;;;;;;;4.90;1.20;;;7.20;99.50;;;;;;4994816;28;20319;-80
2022/04/03 11:38:50;;;;;;;2.40;1.37;;;7.20;99.60;;;;;;4994909;28;20233;-79
2022/04/03 11:41:27;;;;;;;3.53;1.20;;;7.20;99.30;;;;;;4994881;28;20184;-79
2022/04/03 11:44:00;;;;;;;2.57;1.10;;;7.30;99.40;;;;;;4995115;28;20176;-80
2022/04/03 11:46:36;;;;;;;2.60;1.23;;;7.20;99.90;;;;;;4993733;28;20189;-80
2022/04/03 11:49:25;;;;;;;4.37;1.63;;;7.40;99.00;;;;;;4993548;28;20295;-79
2022/04/03 11:52:10;;;;;;;2.00;1.10;;;7.50;99.20;;;;;;4992771;28;20188;-80
2022/04/03 11:54:37;;;;;;;3.33;1.50;;;7.70;98.80;;;;;;4993839;28;20287;-80
2022/04/03 11:57:07;;;;;;;2.90;1.30;;;7.60;97.70;;;;;;4996129;28;20592;-79
2022/04/03 11:59:38;;;;;;;3.93;1.30;;;7.70;98.10;;;;;;4993938;28;20179;-79
2022/04/03 12:02:22;;;;;;;1.80;1.10;;;7.70;97.10;;;;;;4993035;28;20579;-79
2022/04/03 12:04:48;;;;;;;3.50;1.27;;;7.50;97.30;;;;;;4992317;28;20267;-79
2022/04/03 12:07:14;;;;;;;3.93;1.40;;;7.40;96.50;;;;;;4992925;28;20699;-80
2022/04/03 12:09:49;;;;;;;2.53;1.27;;;7.20;96.80;;;;;;4993431;28;20179;-80
2022/04/03 12:12:24;;;;;;;2.90;1.17;;;6.90;98.20;;;;;;4995033;28;20188;-80
2022/04/03 12:14:50;;;;;;;3.00;1.43;;;6.70;99.70;;;;;;4995984;28;20229;-80
2022/04/03 12:17:15;;;;;;;2.40;1.40;;;6.50;99.90;;;;;;4991951;28;20192;-79
2022/04/03 12:19:44;;;;;;;4.07;1.33;;;6.40;99.90;;;;;;4995775;28;20191;-80
2022/04/03 12:22:13;;;;;;;3.80;1.47;;;6.20;99.90;;;;;;4991844;28;20599;-79
2022/04/03 12:24:39;;;;;;;3.57;1.73;;;6.20;99.90;;;;;;4994625;28;20190;-79
2022/04/03 12:27:16;;;;;;;2.63;1.23;;;6.20;99.90;;;;;;4996313;28;20187;-79
2022/04/03 12:29:45;;;;;;;3.40;1.20;;;6.20;99.90;;;;;;4992816;28;20298;-80
2022/04/03 12:32:32;;;;;;;2.43;1.20;;;6.30;99.90;;;;;;4992767;28;20183;-80
2022/04/03 12:34:58;;;;;;;2.53;1.13;;;6.30;99.90;;;;;;4993704;28;20209;-79
2022/04/03 12:37:25;;;;;;;1.40;1.17;;;6.40;99.90;;;;;;4994302;28;20607;-79
2022/04/03 12:39:50;;;;;;;3.27;1.40;;;6.40;99.90;;;;;;4994753;28;20195;-79
2022/04/03 12:42:26;;;;;;;7.40;1.67;;;6.40;99.90;;;;;;4991971;28;20175;-79
2022/04/03 12:44:59;;;;;;;2.07;1.20;;;6.40;99.90;;;;;;4993536;28;20198;-80
2022/04/03 12:47:30;;;;;;;1.70;1.23;;;6.40;99.90;;;;;;4998343;28;20176;-79
2022/04/03 12:50:05;;;;;;;4.37;1.60;;;6.40;99.90;;;;;;4994222;28;20182;-79
2022/04/03 12:52:52;;;;;;;2.70;1.20;;;6.40;99.90;;;;;;4991001;28;20199;-80
2022/04/03 12:55:22;;;;;;;2.27;1.10;;;6.40;99.90;;;;;;4995950;28;20207;-80